createdAt,value
2019-02-02T00:03:32.686Z,3.08
2019-02-02T00:06:01.154Z,2.97
2019-02-02T00:08:29.563Z,3.08
2019-02-02T00:10:57.993Z,3.01
2019-02-02T00:13:26.707Z,3.04
2019-02-02T00:15:55.465Z,2.95
2019-02-02T00:18:24.349Z,2.87
2019-02-02T00:20:53.070Z,2.86
2019-02-02T00:23:21.543Z,2.80
2019-02-02T00:25:49.966Z,2.80
2019-02-02T00:28:18.361Z,2.69
2019-02-02T00:30:46.782Z,2.68
2019-02-02T00:33:15.233Z,2.85
2019-02-02T00:35:43.963Z,2.75
2019-02-02T00:38:12.363Z,2.70
2019-02-02T00:40:41.027Z,2.72
2019-02-02T00:43:09.917Z,2.71
2019-02-02T00:45:38.801Z,2.83
2019-02-02T00:48:07.417Z,2.85
2019-02-02T00:50:35.858Z,2.81
2019-02-02T00:53:04.864Z,2.69
2019-02-02T00:55:33.266Z,2.82
2019-02-02T00:58:01.688Z,2.65
2019-02-02T01:00:30.164Z,2.67
2019-02-02T01:02:58.697Z,2.63
2019-02-02T01:05:27.182Z,2.59
2019-02-02T01:07:55.978Z,2.39
2019-02-02T01:10:27.368Z,2.38
2019-02-02T01:12:55.837Z,2.45
2019-02-02T01:15:24.245Z,2.52
2019-02-02T01:17:52.713Z,2.61
2019-02-02T01:20:21.868Z,2.61
2019-02-02T01:22:50.337Z,2.68
2019-02-02T01:25:19.418Z,2.55
2019-02-02T01:27:47.889Z,2.74
2019-02-02T01:30:18.894Z,2.88
2019-02-02T01:32:47.547Z,2.89
2019-02-02T01:35:55.870Z,2.76
2019-02-02T01:38:24.266Z,2.58
2019-02-02T01:40:52.997Z,2.42
2019-02-02T01:43:21.542Z,2.65
2019-02-02T01:45:50.269Z,2.56
2019-02-02T01:48:18.678Z,2.47
2019-02-02T01:50:47.070Z,2.45
2019-02-02T01:53:15.480Z,2.55
2019-02-02T01:55:43.878Z,2.44
2019-02-02T01:58:17.022Z,2.56
2019-02-02T02:00:42.412Z,2.48
2019-02-02T02:03:10.818Z,2.59
2019-02-02T02:05:39.552Z,2.44
2019-02-02T02:08:07.967Z,2.43
2019-02-02T02:10:36.365Z,2.36
2019-02-02T02:13:04.906Z,2.41
2019-02-02T02:15:33.582Z,2.41
2019-02-02T02:18:01.984Z,2.44
2019-02-02T02:20:30.646Z,2.48
2019-02-02T02:22:59.331Z,2.62
2019-02-02T02:25:27.743Z,2.64
2019-02-02T02:27:56.134Z,2.66
2019-02-02T02:31:04.443Z,2.62
2019-02-02T02:33:32.843Z,2.74
2019-02-02T02:36:01.571Z,2.87
2019-02-02T02:38:30.262Z,2.82
2019-02-02T02:41:18.295Z,2.89
2019-02-02T02:43:46.985Z,2.82
2019-02-02T02:46:15.451Z,2.78
2019-02-02T02:51:38.845Z,2.79
2019-02-02T02:54:07.359Z,2.74
2019-02-02T02:56:35.896Z,2.79
2019-02-02T02:59:44.205Z,2.74
2019-02-02T03:02:12.669Z,2.73
2019-02-02T03:04:41.196Z,2.77
2019-02-02T03:07:09.754Z,2.84
2019-02-02T03:09:38.469Z,2.93
2019-02-02T03:12:06.949Z,2.84
2019-02-02T03:14:35.348Z,2.73
2019-02-02T03:17:04.002Z,2.84
2019-02-02T03:19:35.347Z,2.83
2019-02-02T03:22:23.087Z,2.74
2019-02-02T03:24:51.823Z,2.69
2019-02-02T03:27:20.290Z,2.63
2019-02-02T03:29:48.685Z,2.58
2019-02-02T03:32:17.089Z,2.53
2019-02-02T03:34:45.499Z,2.30
2019-02-02T03:37:13.895Z,2.51
2019-02-02T03:39:42.312Z,2.57
2019-02-02T03:42:10.706Z,2.54
2019-02-02T03:44:39.122Z,2.38
2019-02-02T03:47:07.831Z,2.45
2019-02-02T03:49:36.490Z,2.44
2019-02-02T03:52:04.899Z,2.46
2019-02-02T03:54:33.296Z,2.41
2019-02-02T03:57:02.024Z,2.39
2019-02-02T03:59:49.748Z,2.37
2019-02-02T04:02:18.284Z,2.40
2019-02-02T04:04:46.634Z,2.31
2019-02-02T04:07:15.034Z,2.40
2019-02-02T04:09:43.441Z,2.35
2019-02-02T04:12:12.184Z,2.39
2019-02-02T04:14:40.880Z,2.52
2019-02-02T04:17:09.279Z,2.47
2019-02-02T04:19:37.690Z,2.48
2019-02-02T04:22:06.093Z,2.49
2019-02-02T04:24:34.491Z,2.49
2019-02-02T04:27:03.177Z,2.72
2019-02-02T04:29:31.858Z,2.61
2019-02-02T04:32:00.548Z,2.53
2019-02-02T04:34:29.015Z,2.52
2019-02-02T04:36:57.481Z,2.47
2019-02-02T04:39:25.902Z,2.55
2019-02-02T04:41:54.585Z,2.64
2019-02-02T04:44:23.258Z,2.62
2019-02-02T04:46:52.002Z,2.61
2019-02-02T04:49:20.629Z,2.65
2019-02-02T04:51:49.045Z,2.57
2019-02-02T04:54:17.698Z,2.54
2019-02-02T04:56:46.116Z,2.64
2019-02-02T04:59:14.519Z,2.72
2019-02-02T05:01:42.932Z,2.57
2019-02-02T05:04:11.330Z,2.76
2019-02-02T05:06:39.731Z,2.69
2019-02-02T05:09:08.607Z,2.86
2019-02-02T05:11:37.003Z,2.88
2019-02-02T05:14:05.750Z,2.84
2019-02-02T05:16:34.142Z,2.96
2019-02-02T05:19:02.541Z,2.82
2019-02-02T05:21:30.943Z,2.80
2019-02-02T05:23:59.668Z,2.70
2019-02-02T05:26:28.080Z,2.75
2019-02-02T05:28:56.473Z,2.75
2019-02-02T05:31:24.866Z,2.66
2019-02-02T05:33:53.840Z,2.61
2019-02-02T05:36:22.488Z,2.73
2019-02-02T05:38:51.173Z,2.82
2019-02-02T05:41:19.570Z,2.87
2019-02-02T05:43:48.236Z,2.62
2019-02-02T05:46:16.641Z,2.63
2019-02-02T05:48:45.036Z,2.94
2019-02-02T05:51:13.449Z,2.97
2019-02-02T05:53:42.083Z,2.89
2019-02-02T05:56:10.745Z,2.82
2019-02-02T05:58:39.430Z,2.96
2019-02-02T06:01:09.466Z,3.02
2019-02-02T06:03:37.873Z,3.04
2019-02-02T06:06:06.273Z,3.15
2019-02-02T06:08:34.996Z,3.09
2019-02-02T06:11:03.392Z,2.94
2019-02-02T06:13:32.059Z,3.16
2019-02-02T06:16:00.697Z,3.20
2019-02-02T06:18:29.946Z,3.01
2019-02-02T06:20:58.630Z,3.06
2019-02-02T06:23:27.033Z,2.97
2019-02-02T06:25:55.454Z,2.96
2019-02-02T06:28:23.862Z,3.09
2019-02-02T06:30:52.332Z,3.13
2019-02-02T06:33:20.735Z,3.10
2019-02-02T06:35:49.142Z,3.21
2019-02-02T06:38:17.547Z,3.31
2019-02-02T06:40:45.939Z,3.35
2019-02-02T06:43:14.356Z,3.27
2019-02-02T06:45:42.749Z,3.25
2019-02-02T06:48:11.156Z,3.18
2019-02-02T06:50:39.896Z,3.07
2019-02-02T06:53:08.369Z,2.91
2019-02-02T06:55:36.761Z,2.78
2019-02-02T06:58:05.613Z,2.69
2019-02-02T07:00:34.074Z,2.79
2019-02-02T07:03:02.480Z,2.81
2019-02-02T07:05:33.782Z,2.66
2019-02-02T07:08:01.095Z,2.63
2019-02-02T07:10:30.070Z,2.52
2019-02-02T07:12:58.475Z,2.48
2019-02-02T07:15:31.398Z,2.32
2019-02-02T07:17:59.769Z,2.52
2019-02-02T07:20:28.236Z,2.47
2019-02-02T07:22:57.007Z,2.49
2019-02-02T07:25:25.409Z,2.46
2019-02-02T07:27:53.887Z,2.50
2019-02-02T07:30:28.837Z,2.47
2019-02-02T07:32:54.912Z,2.48
2019-02-02T07:35:23.674Z,2.43
2019-02-02T07:37:52.083Z,2.49
2019-02-02T07:40:22.025Z,2.68
2019-02-02T07:42:50.855Z,2.64
2019-02-02T07:45:27.980Z,2.57
2019-02-02T07:47:56.381Z,2.38
2019-02-02T07:50:24.812Z,2.35
2019-02-02T07:52:53.526Z,2.31
2019-02-02T07:55:22.962Z,2.34
2019-02-02T07:57:51.713Z,2.42
2019-02-02T08:00:25.829Z,2.38
2019-02-02T08:02:54.308Z,2.39
2019-02-02T08:05:22.772Z,2.36
2019-02-02T08:07:51.252Z,2.35
2019-02-02T08:10:19.655Z,2.34
2019-02-02T08:12:48.545Z,2.49
2019-02-02T08:15:22.442Z,2.50
2019-02-02T08:17:51.239Z,2.44
2019-02-02T08:20:20.028Z,2.42
2019-02-02T08:22:48.818Z,2.50
2019-02-02T08:25:17.909Z,2.50
2019-02-02T08:27:46.680Z,2.59
2019-02-02T08:30:35.588Z,2.79
2019-02-02T08:33:02.909Z,2.96
2019-02-02T08:35:31.599Z,2.81
2019-02-02T08:38:00.003Z,2.78
2019-02-02T08:40:28.663Z,3.02
2019-02-02T08:42:57.350Z,2.90
2019-02-02T08:45:25.814Z,2.78
2019-02-02T08:47:54.223Z,2.65
2019-02-02T08:50:26.010Z,2.68
2019-02-02T08:52:54.407Z,3.08
2019-02-02T08:55:24.795Z,3.39
2019-02-02T08:57:53.819Z,3.04
2019-02-02T09:00:22.461Z,3.01
2019-02-02T09:02:50.964Z,2.70
2019-02-02T09:05:21.295Z,2.87
2019-02-02T09:07:49.698Z,2.89
2019-02-02T09:10:24.423Z,3.01
2019-02-02T09:12:52.822Z,3.18
2019-02-02T09:15:21.377Z,3.21
2019-02-02T09:17:49.845Z,3.14
2019-02-02T09:20:21.396Z,3.30
2019-02-02T09:22:49.798Z,3.44
2019-02-02T09:25:21.366Z,3.53
2019-02-02T09:27:49.783Z,3.45
2019-02-02T09:30:21.100Z,3.57
2019-02-02T09:32:49.509Z,3.64
2019-02-02T09:35:18.006Z,3.61
2019-02-02T09:37:46.729Z,3.74
2019-02-02T09:40:17.536Z,3.67
2019-02-02T09:42:46.082Z,3.62
2019-02-02T09:45:21.919Z,3.70
2019-02-02T09:47:51.345Z,3.69
2019-02-02T09:50:25.046Z,3.67
2019-02-02T09:52:53.589Z,3.73
2019-02-02T09:55:23.546Z,3.64
2019-02-02T09:57:54.963Z,3.86
2019-02-02T10:00:26.379Z,3.85
2019-02-02T10:02:55.019Z,3.68
2019-02-02T10:05:23.734Z,3.88
2019-02-02T10:07:52.512Z,4.01
2019-02-02T10:10:23.761Z,4.35
2019-02-02T10:12:52.164Z,4.42
2019-02-02T10:15:21.020Z,4.50
2019-02-02T10:17:50.081Z,4.51
2019-02-02T10:20:21.101Z,4.38
2019-02-02T10:22:49.852Z,4.25
2019-02-02T10:25:26.575Z,4.26
2019-02-02T10:27:55.128Z,4.54
2019-02-02T10:30:35.128Z,4.75
2019-02-02T10:33:03.939Z,4.99
2019-02-02T10:35:32.540Z,5.07
2019-02-02T10:38:00.973Z,5.16
2019-02-02T10:40:30.108Z,5.02
2019-02-02T10:42:59.095Z,5.29
2019-02-02T10:45:27.790Z,5.26
2019-02-02T10:47:56.195Z,5.44
2019-02-02T10:50:26.440Z,5.47
2019-02-02T10:52:54.849Z,5.49
2019-02-02T10:55:23.388Z,5.60
2019-02-02T10:57:51.790Z,5.62
2019-02-02T11:00:22.803Z,5.46
2019-02-02T11:02:51.287Z,5.51
2019-02-02T11:05:19.859Z,5.73
2019-02-02T11:07:48.254Z,5.83
2019-02-02T11:10:19.338Z,5.94
2019-02-02T11:12:48.299Z,6.09
2019-02-02T11:15:18.995Z,6.21
2019-02-02T11:17:47.707Z,6.25
2019-02-02T11:20:21.903Z,6.51
2019-02-02T11:22:50.802Z,6.71
2019-02-02T11:25:19.159Z,6.79
2019-02-02T11:27:47.845Z,6.76
2019-02-02T11:30:23.997Z,7.06
2019-02-02T11:32:52.673Z,6.73
2019-02-02T11:35:22.309Z,6.83
2019-02-02T11:37:51.075Z,6.94
2019-02-02T11:40:22.626Z,6.91
2019-02-02T11:42:51.019Z,6.68
2019-02-02T11:45:19.491Z,6.97
2019-02-02T11:47:47.878Z,6.97
2019-02-02T11:50:20.392Z,7.13
2019-02-02T11:52:48.847Z,6.89
2019-02-02T11:55:19.535Z,6.92
2019-02-02T11:57:50.035Z,7.48
2019-02-02T12:00:29.934Z,7.19
2019-02-02T12:02:58.550Z,7.15
2019-02-02T12:05:27.204Z,7.17
2019-02-02T12:07:56.153Z,7.31
2019-02-02T12:10:32.903Z,6.93
2019-02-02T12:13:01.376Z,7.27
2019-02-02T12:15:29.763Z,7.66
2019-02-02T12:17:58.517Z,7.61
2019-02-02T12:20:27.188Z,8.03
2019-02-02T12:22:55.646Z,8.03
2019-02-02T12:25:24.366Z,8.14
2019-02-02T12:27:52.835Z,7.85
2019-02-02T12:30:26.861Z,7.83
2019-02-02T12:32:55.549Z,7.49
2019-02-02T12:35:26.032Z,7.34
2019-02-02T12:37:55.065Z,7.30
2019-02-02T12:40:25.915Z,7.43
2019-02-02T12:42:54.307Z,7.80
2019-02-02T12:45:25.838Z,7.55
2019-02-02T12:47:54.241Z,7.22
2019-02-02T12:50:23.002Z,7.25
2019-02-02T12:52:51.477Z,7.12
2019-02-02T12:55:20.104Z,7.17
2019-02-02T12:57:48.510Z,7.21
2019-02-02T13:00:19.161Z,7.40
2019-02-02T13:02:48.096Z,7.11
2019-02-02T13:05:22.518Z,7.50
2019-02-02T13:07:51.000Z,7.13
2019-02-02T13:10:24.432Z,7.39
2019-02-02T13:12:52.082Z,6.97
2019-02-02T13:15:20.493Z,7.06
2019-02-02T13:17:49.418Z,6.89
2019-02-02T13:20:18.524Z,6.87
2019-02-02T13:22:47.272Z,6.93
2019-02-02T13:25:18.635Z,6.93
2019-02-02T13:27:47.427Z,6.94
2019-02-02T13:30:21.881Z,7.26
2019-02-02T13:32:50.470Z,7.44
2019-02-02T13:35:19.688Z,7.53
2019-02-02T13:37:48.072Z,7.52
2019-02-02T13:40:21.651Z,7.43
2019-02-02T13:42:50.179Z,7.33
2019-02-02T13:45:20.689Z,7.55
2019-02-02T13:47:49.144Z,7.51
2019-02-02T13:50:19.062Z,7.39
2019-02-02T13:52:49.068Z,7.34
2019-02-02T13:55:17.515Z,7.48
2019-02-02T13:57:45.931Z,7.51
2019-02-02T14:00:26.094Z,7.40
2019-02-02T14:03:02.024Z,7.50
2019-02-02T14:05:24.916Z,7.78
2019-02-02T14:07:53.462Z,7.60
2019-02-02T14:10:45.423Z,7.39
2019-02-02T14:13:13.830Z,7.42
2019-02-02T14:19:27.378Z,7.47
2019-02-02T14:21:55.774Z,7.43
2019-02-02T14:24:24.182Z,7.15
2019-02-02T14:26:52.581Z,7.21
2019-02-02T14:32:27.772Z,7.08
2019-02-02T14:34:56.177Z,7.07
2019-02-02T14:37:24.594Z,7.16
2019-02-02T14:39:53.250Z,7.13
2019-02-02T14:42:21.653Z,7.24
2019-02-02T14:44:50.325Z,6.94
2019-02-02T14:47:18.715Z,7.04
2019-02-02T14:49:47.117Z,6.99
2019-02-02T14:52:15.857Z,7.02
2019-02-02T14:54:44.259Z,6.78
2019-02-02T14:57:12.921Z,6.67
2019-02-02T14:59:41.333Z,6.50
2019-02-02T15:02:09.793Z,6.55
2019-02-02T15:04:38.432Z,6.39
2019-02-02T15:07:06.830Z,6.44
2019-02-02T15:09:35.233Z,6.39
2019-02-02T15:12:03.634Z,6.42
2019-02-02T15:14:32.026Z,6.40
2019-02-02T15:17:00.497Z,6.28
2019-02-02T15:19:40.902Z,6.32
2019-02-02T15:21:59.029Z,6.31
2019-02-02T15:24:27.767Z,6.24
2019-02-02T15:26:56.155Z,6.22
2019-02-02T15:29:24.558Z,6.13
2019-02-02T15:32:12.284Z,6.06
2019-02-02T15:34:40.694Z,6.23
2019-02-02T15:37:09.097Z,6.18
2019-02-02T15:39:37.518Z,6.15
2019-02-02T15:42:05.910Z,6.16
2019-02-02T15:44:34.298Z,6.09
2019-02-02T15:47:02.710Z,6.08
2019-02-02T15:49:31.404Z,6.10
2019-02-02T15:51:59.818Z,6.07
2019-02-02T15:54:28.468Z,6.08
2019-02-02T15:56:56.875Z,5.98
2019-02-02T15:59:25.278Z,5.97
2019-02-02T16:01:53.694Z,5.97
2019-02-02T16:04:22.089Z,5.94
2019-02-02T16:06:50.489Z,5.88
2019-02-02T16:09:18.907Z,5.94
2019-02-02T16:11:47.301Z,5.95
2019-02-02T16:14:15.714Z,5.87
2019-02-02T16:16:44.116Z,5.96
2019-02-02T16:19:12.525Z,5.95
2019-02-02T16:21:40.928Z,5.98
2019-02-02T16:24:09.333Z,5.90
2019-02-02T16:26:57.362Z,5.84
2019-02-02T16:29:25.772Z,5.82
2019-02-02T16:31:54.181Z,5.70
2019-02-02T16:34:22.669Z,5.72
2019-02-02T16:36:51.147Z,5.67
2019-02-02T16:39:19.551Z,5.73
2019-02-02T16:41:47.959Z,5.83
2019-02-02T16:44:16.359Z,5.80
2019-02-02T16:46:45.017Z,5.78
2019-02-02T16:49:13.413Z,5.88
2019-02-02T16:51:41.831Z,5.75
2019-02-02T16:54:10.298Z,5.92
2019-02-02T16:56:38.919Z,5.87
2019-02-02T16:59:07.616Z,5.87
2019-02-02T17:01:36.013Z,5.75
2019-02-02T17:04:15.311Z,5.70
2019-02-02T17:06:34.907Z,5.77
2019-02-02T17:12:16.829Z,5.48
2019-02-02T17:15:25.202Z,5.38
2019-02-02T17:17:53.671Z,5.40
2019-02-02T17:20:42.090Z,5.33
2019-02-02T17:23:10.492Z,5.29
2019-02-02T17:25:58.255Z,5.26
2019-02-02T17:28:26.974Z,5.26
2019-02-02T17:30:55.387Z,5.36
2019-02-02T17:33:26.605Z,5.35
2019-02-02T17:35:54.249Z,5.33
2019-02-02T17:38:22.653Z,5.26
2019-02-02T17:40:51.318Z,5.21
2019-02-02T17:43:19.730Z,5.23
2019-02-02T17:45:48.370Z,5.27
2019-02-02T17:48:17.068Z,5.27
2019-02-02T17:50:45.749Z,5.23
2019-02-02T17:53:14.473Z,5.08
2019-02-02T17:55:43.129Z,5.15
2019-02-02T17:58:13.477Z,5.22
2019-02-02T18:01:21.620Z,5.20
2019-02-02T18:03:50.024Z,5.07
2019-02-02T18:06:37.689Z,5.03
2019-02-02T18:09:46.778Z,5.07
2019-02-02T18:12:16.412Z,4.85
2019-02-02T18:14:45.213Z,4.64
2019-02-02T18:17:13.582Z,4.66
2019-02-02T18:23:13.363Z,4.65
2019-02-02T18:25:41.770Z,4.60
2019-02-02T18:28:10.507Z,4.62
2019-02-02T18:30:39.180Z,4.50
2019-02-02T18:33:07.674Z,4.44
2019-02-02T18:35:36.100Z,4.51
2019-02-02T18:38:04.584Z,4.42
2019-02-02T18:40:33.245Z,4.43
2019-02-02T18:43:01.725Z,4.53
2019-02-02T18:45:50.935Z,4.54
2019-02-02T18:48:19.598Z,4.44
2019-02-02T18:50:48.263Z,4.49
2019-02-02T18:53:16.683Z,4.77
2019-02-02T18:56:25.268Z,4.72
2019-02-02T18:58:53.690Z,4.68
2019-02-02T19:01:22.173Z,4.81
2019-02-02T19:03:50.601Z,4.83
2019-02-02T19:06:19.012Z,4.90
2019-02-02T19:11:35.170Z,4.95
2019-02-02T19:14:03.633Z,4.90
2019-02-02T19:16:32.051Z,4.78
2019-02-02T19:19:00.459Z,4.77
2019-02-02T19:21:29.145Z,4.93
2019-02-02T19:23:57.556Z,4.79
2019-02-02T19:26:25.979Z,4.88
2019-02-02T19:28:54.619Z,4.81
2019-02-02T19:31:23.078Z,4.76
2019-02-02T19:33:51.687Z,4.73
2019-02-02T19:36:20.102Z,4.77
2019-02-02T19:38:48.506Z,4.84
2019-02-02T19:41:17.160Z,4.87
2019-02-02T19:43:45.830Z,4.84
2019-02-02T19:46:14.289Z,4.86
2019-02-02T19:48:42.781Z,4.85
2019-02-02T19:51:11.210Z,4.93
2019-02-02T19:53:39.760Z,5.01
2019-02-02T19:56:08.390Z,4.86
2019-02-02T19:58:36.834Z,4.98
2019-02-02T20:01:45.140Z,4.86
2019-02-02T20:04:13.563Z,4.82
2019-02-02T20:06:41.977Z,4.85
2019-02-02T20:09:10.479Z,4.78
2019-02-02T20:11:39.148Z,5.01
2019-02-02T20:19:56.908Z,4.82
2019-02-02T20:22:44.979Z,4.82
2019-02-02T20:25:34.566Z,4.89
2019-02-02T20:28:03.343Z,4.95
2019-02-02T20:31:11.895Z,5.01
2019-02-02T20:33:40.329Z,5.03
2019-02-02T20:36:08.742Z,4.93
2019-02-02T20:38:39.985Z,4.88
2019-02-02T20:41:07.284Z,4.97
2019-02-02T20:43:35.702Z,5.07
2019-02-02T20:46:04.274Z,5.16
2019-02-02T20:48:32.685Z,5.04
2019-02-02T20:51:01.467Z,5.05
2019-02-02T20:53:30.133Z,5.03
2019-02-02T20:55:58.570Z,5.03
2019-02-02T20:58:26.966Z,4.96
2019-02-02T21:00:55.620Z,5.08
2019-02-02T21:03:24.036Z,5.14
2019-02-02T21:05:52.861Z,5.02
2019-02-02T21:08:22.602Z,5.13
2019-02-02T21:10:51.269Z,4.94
2019-02-02T21:13:19.696Z,4.84
2019-02-02T21:15:48.105Z,4.98
2019-02-02T21:18:18.241Z,5.18
2019-02-02T21:20:46.656Z,5.02
2019-02-02T21:23:15.074Z,5.07
2019-02-02T21:25:43.505Z,4.96
2019-02-02T21:28:12.164Z,4.97
2019-02-02T21:30:40.655Z,5.02
2019-02-02T21:33:09.083Z,4.98
2019-02-02T21:35:37.505Z,5.03
2019-02-02T21:38:06.275Z,5.00
2019-02-02T21:40:55.482Z,4.88
2019-02-02T21:43:24.220Z,4.89
2019-02-02T21:45:52.645Z,4.93
2019-02-02T21:48:21.113Z,5.05
2019-02-02T21:54:04.022Z,4.97
2019-02-02T21:56:32.713Z,5.04
2019-02-02T21:59:01.381Z,5.14
2019-02-02T22:01:29.868Z,5.00
2019-02-02T22:03:58.265Z,4.90
2019-02-02T22:06:26.989Z,4.93
2019-02-02T22:08:55.424Z,4.97
2019-02-02T22:11:23.840Z,5.15
2019-02-02T22:13:52.638Z,5.26
2019-02-02T22:16:22.661Z,5.17
2019-02-02T22:18:51.056Z,4.98
2019-02-02T22:21:19.477Z,4.94
2019-02-02T22:23:47.881Z,4.92
2019-02-02T22:26:16.317Z,4.90
2019-02-02T22:28:44.966Z,4.83
2019-02-02T22:31:13.439Z,4.91
2019-02-02T22:33:41.809Z,4.97
2019-02-02T22:36:10.202Z,5.00
2019-02-02T22:38:38.638Z,4.89
2019-02-02T22:41:07.153Z,4.93
2019-02-02T22:43:35.771Z,4.96
2019-02-02T22:48:59.057Z,5.00
2019-02-02T22:51:27.741Z,4.99
2019-02-02T22:53:56.331Z,5.02
2019-02-02T22:56:24.764Z,5.03
2019-02-02T22:58:53.184Z,5.07
2019-02-02T23:02:01.521Z,4.93
2019-02-02T23:05:10.093Z,4.95
2019-02-02T23:08:18.420Z,5.02
2019-02-02T23:11:26.787Z,4.95
2019-02-02T23:14:35.126Z,5.01
2019-02-02T23:17:03.769Z,4.93
2019-02-02T23:19:32.428Z,4.86
2019-02-02T23:24:55.989Z,4.91
2019-02-02T23:27:24.442Z,4.88
2019-02-02T23:29:53.109Z,4.80
2019-02-02T23:32:21.526Z,4.88
2019-02-02T23:34:50.130Z,4.92
2019-02-02T23:37:18.551Z,4.82
2019-02-02T23:39:46.983Z,4.77
2019-02-02T23:42:15.465Z,4.76
2019-02-02T23:44:43.894Z,4.89
2019-02-02T23:47:12.575Z,4.98
2019-02-02T23:49:41.242Z,4.88
2019-02-02T23:52:09.758Z,5.02
2019-02-02T23:54:38.182Z,5.03
2019-02-02T23:57:06.589Z,4.94
2019-02-02T23:59:35.468Z,4.91
